Terminal Aerodrome Forecast
Issued by NWS

Home | Current Version | Previous Version | Graphics & Text | Print | Product List | Glossary Off
Versions: 1 2 3 4 5 6 7 8 9 10 11 12 13 14 15 16 17 18 19 20 21 22 23 24 25 26 27 28

000
FTUS43 KDDC 260329 AAA
TAFGCK
TAF AMD
KGCK 260329Z 2603/2624 17009KT P6SM BKN150
     FM260330 04020G30KT 3SM +TSRA BR BKN025CB
     FM260500 16006KT P6SM VCTS BKN100CB
     FM260700 17009KT P6SM BKN150=

USA.gov is the U.S. government's official web portal to all federal, state and local government web resources and services.